sensor_id;sensor_type;location;lat;lon;timestamp;temperature;humidity
23149;DHT22;11743;51.228;22.498;2023-07-20T00:00:19;15.60;99.90
23149;DHT22;11743;51.228;22.498;2023-07-20T00:00:40;15.50;99.90
23149;DHT22;11743;51.228;22.498;2023-07-20T00:01:02;15.50;99.90
23149;DHT22;11743;51.228;22.498;2023-07-20T00:01:24;15.50;99.90
23149;DHT22;11743;51.228;22.498;2023-07-20T00:01:46;15.50;99.90
23149;DHT22;11743;51.228;22.498;2023-07-20T00:02:08;15.50;99.90
23149;DHT22;11743;51.228;22.498;2023-07-20T00:02:30;15.50;99.90
23149;DHT22;11743;51.228;22.498;2023-07-20T00:02:52;15.50;99.90
23149;DHT22;11743;51.228;22.498;2023-07-20T00:03:14;15.50;99.90
23149;DHT22;11743;51.228;22.498;2023-07-20T00:03:40;15.50;99.90
23149;DHT22;11743;51.228;22.498;2023-07-20T00:04:02;15.50;99.90
23149;DHT22;11743;51.228;22.498;2023-07-20T00:04:24;15.50;99.90
23149;DHT22;11743;51.228;22.498;2023-07-20T00:04:46;15.50;99.90
23149;DHT22;11743;51.228;22.498;2023-07-20T00:05:08;15.50;99.90
23149;DHT22;11743;51.228;22.498;2023-07-20T00:05:29;15.50;99.90
23149;DHT22;11743;51.228;22.498;2023-07-20T00:05:51;15.50;99.90
23149;DHT22;11743;51.228;22.498;2023-07-20T00:06:13;15.50;99.90
23149;DHT22;11743;51.228;22.498;2023-07-20T00:06:35;15.50;99.90
23149;DHT22;11743;51.228;22.498;2023-07-20T00:06:57;15.50;99.90
23149;DHT22;11743;51.228;22.498;2023-07-20T00:07:18;15.50;99.90
23149;DHT22;11743;51.228;22.498;2023-07-20T00:07:40;15.40;99.90
23149;DHT22;11743;51.228;22.498;2023-07-20T00:08:02;15.50;99.90
23149;DHT22;11743;51.228;22.498;2023-07-20T00:08:24;15.40;99.90
23149;DHT22;11743;51.228;22.498;2023-07-20T00:08:46;15.50;99.90
23149;DHT22;11743;51.228;22.498;2023-07-20T00:09:07;15.40;99.90
23149;DHT22;11743;51.228;22.498;2023-07-20T00:09:29;15.40;99.90
23149;DHT22;11743;51.228;22.498;2023-07-20T00:09:51;15.40;99.90
23149;DHT22;11743;51.228;22.498;2023-07-20T00:10:13;15.40;99.90
23149;DHT22;11743;51.228;22.498;2023-07-20T00:10:35;15.40;99.90
23149;DHT22;11743;51.228;22.498;2023-07-20T00:10:57;15.40;99.90
23149;DHT22;11743;51.228;22.498;2023-07-20T00:11:19;15.40;99.90
23149;DHT22;11743;51.228;22.498;2023-07-20T00:11:48;15.40;99.90
23149;DHT22;11743;51.228;22.498;2023-07-20T00:12:12;15.40;99.90
23149;DHT22;11743;51.228;22.498;2023-07-20T00:12:34;15.40;99.90
23149;DHT22;11743;51.228;22.498;2023-07-20T00:12:55;15.40;99.90
23149;DHT22;11743;51.228;22.498;2023-07-20T00:13:17;15.40;99.90
23149;DHT22;11743;51.228;22.498;2023-07-20T00:13:40;15.40;99.90
23149;DHT22;11743;51.228;22.498;2023-07-20T00:14:02;15.40;99.90
23149;DHT22;11743;51.228;22.498;2023-07-20T00:14:24;15.40;99.90
23149;DHT22;11743;51.228;22.498;2023-07-20T00:14:47;15.40;99.90
23149;DHT22;11743;51.228;22.498;2023-07-20T00:15:09;15.40;99.90
23149;DHT22;11743;51.228;22.498;2023-07-20T00:15:30;15.40;99.90
23149;DHT22;11743;51.228;22.498;2023-07-20T00:15:52;15.40;99.90
23149;DHT22;11743;51.228;22.498;2023-07-20T00:16:14;15.40;99.90
23149;DHT22;11743;51.228;22.498;2023-07-20T00:16:36;15.40;99.90
23149;DHT22;11743;51.228;22.498;2023-07-20T00:16:58;15.40;99.90
23149;DHT22;11743;51.228;22.498;2023-07-20T00:17:20;15.40;99.90
23149;DHT22;11743;51.228;22.498;2023-07-20T00:17:42;15.30;99.90
23149;DHT22;11743;51.228;22.498;2023-07-20T00:18:04;15.30;99.90
23149;DHT22;11743;51.228;22.498;2023-07-20T00:18:26;15.30;99.90
23149;DHT22;11743;51.228;22.498;2023-07-20T00:18:48;15.30;99.90
23149;DHT22;11743;51.228;22.498;2023-07-20T00:19:10;15.30;99.90
23149;DHT22;11743;51.228;22.498;2023-07-20T00:19:32;15.30;99.90
23149;DHT22;11743;51.228;22.498;2023-07-20T00:19:54;15.30;99.90
23149;DHT22;11743;51.228;22.498;2023-07-20T00:20:16;15.30;99.90
23149;DHT22;11743;51.228;22.498;2023-07-20T00:20:37;15.30;99.90
23149;DHT22;11743;51.228;22.498;2023-07-20T00:20:59;15.30;99.90
23149;DHT22;11743;51.228;22.498;2023-07-20T00:21:21;15.30;99.90
23149;DHT22;11743;51.228;22.498;2023-07-20T00:21:43;15.30;99.90
23149;DHT22;11743;51.228;22.498;2023-07-20T00:22:05;15.30;99.90
23149;DHT22;11743;51.228;22.498;2023-07-20T00:22:27;15.30;99.90
23149;DHT22;11743;51.228;22.498;2023-07-20T00:22:48;15.30;99.90
23149;DHT22;11743;51.228;22.498;2023-07-20T00:23:12;15.30;99.90
23149;DHT22;11743;51.228;22.498;2023-07-20T00:23:34;15.30;99.90
23149;DHT22;11743;51.228;22.498;2023-07-20T00:23:57;15.30;99.90
23149;DHT22;11743;51.228;22.498;2023-07-20T00:24:18;15.30;99.90
23149;DHT22;11743;51.228;22.498;2023-07-20T00:24:40;15.30;99.90
23149;DHT22;11743;51.228;22.498;2023-07-20T00:25:03;15.20;99.90
23149;DHT22;11743;51.228;22.498;2023-07-20T00:25:25;15.30;99.90
23149;DHT22;11743;51.228;22.498;2023-07-20T00:25:47;15.30;99.90
23149;DHT22;11743;51.228;22.498;2023-07-20T00:26:08;15.30;99.90
23149;DHT22;11743;51.228;22.498;2023-07-20T00:26:30;15.30;99.90
23149;DHT22;11743;51.228;22.498;2023-07-20T00:26:52;15.20;99.90
23149;DHT22;11743;51.228;22.498;2023-07-20T00:27:14;15.20;99.90
23149;DHT22;11743;51.228;22.498;2023-07-20T00:27:36;15.20;99.90
23149;DHT22;11743;51.228;22.498;2023-07-20T00:27:57;15.20;99.90
23149;DHT22;11743;51.228;22.498;2023-07-20T00:28:19;15.20;99.90
23149;DHT22;11743;51.228;22.498;2023-07-20T00:28:41;15.20;99.90
23149;DHT22;11743;51.228;22.498;2023-07-20T00:29:03;15.20;99.90
23149;DHT22;11743;51.228;22.498;2023-07-20T00:29:25;15.20;99.90
23149;DHT22;11743;51.228;22.498;2023-07-20T00:29:47;15.20;99.90
23149;DHT22;11743;51.228;22.498;2023-07-20T00:30:09;15.20;99.90
23149;DHT22;11743;51.228;22.498;2023-07-20T00:30:31;15.20;99.90
23149;DHT22;11743;51.228;22.498;2023-07-20T00:30:53;15.20;99.90
23149;DHT22;11743;51.228;22.498;2023-07-20T00:31:15;15.10;99.90
23149;DHT22;11743;51.228;22.498;2023-07-20T00:31:37;15.20;99.90
23149;DHT22;11743;51.228;22.498;2023-07-20T00:31:59;15.20;99.90
23149;DHT22;11743;51.228;22.498;2023-07-20T00:32:20;15.10;99.90
23149;DHT22;11743;51.228;22.498;2023-07-20T00:32:43;15.20;99.90
23149;DHT22;11743;51.228;22.498;2023-07-20T00:33:06;15.10;99.90
23149;DHT22;11743;51.228;22.498;2023-07-20T00:33:28;15.10;99.90
23149;DHT22;11743;51.228;22.498;2023-07-20T00:33:50;15.10;99.90
23149;DHT22;11743;51.228;22.498;2023-07-20T00:34:12;15.10;99.90
23149;DHT22;11743;51.228;22.498;2023-07-20T00:34:34;15.10;99.90
23149;DHT22;11743;51.228;22.498;2023-07-20T00:34:56;15.10;99.90
23149;DHT22;11743;51.228;22.498;2023-07-20T00:35:18;15.10;99.90
23149;DHT22;11743;51.228;22.498;2023-07-20T00:35:39;15.10;99.90
23149;DHT22;11743;51.228;22.498;2023-07-20T00:36:01;15.10;99.90
23149;DHT22;11743;51.228;22.498;2023-07-20T00:36:23;15.10;99.90
23149;DHT22;11743;51.228;22.498;2023-07-20T00:36:46;15.10;99.90
23149;DHT22;11743;51.228;22.498;2023-07-20T00:37:07;15.10;99.90
23149;DHT22;11743;51.228;22.498;2023-07-20T00:37:29;15.10;99.90
23149;DHT22;11743;51.228;22.498;2023-07-20T00:37:51;15.00;99.90
23149;DHT22;11743;51.228;22.498;2023-07-20T00:38:13;15.00;99.90
23149;DHT22;11743;51.228;22.498;2023-07-20T00:38:35;15.00;99.90
23149;DHT22;11743;51.228;22.498;2023-07-20T00:38:57;15.00;99.90
23149;DHT22;11743;51.228;22.498;2023-07-20T00:39:19;15.00;99.90
23149;DHT22;11743;51.228;22.498;2023-07-20T00:39:41;15.00;99.90
23149;DHT22;11743;51.228;22.498;2023-07-20T00:40:03;15.00;99.90
23149;DHT22;11743;51.228;22.498;2023-07-20T00:40:34;15.00;99.90
23149;DHT22;11743;51.228;22.498;2023-07-20T00:40:56;15.00;99.90
23149;DHT22;11743;51.228;22.498;2023-07-20T00:41:18;15.00;99.90
23149;DHT22;11743;51.228;22.498;2023-07-20T00:41:40;15.10;99.90
23149;DHT22;11743;51.228;22.498;2023-07-20T00:42:02;15.00;99.90
23149;DHT22;11743;51.228;22.498;2023-07-20T00:42:24;15.00;99.90
23149;DHT22;11743;51.228;22.498;2023-07-20T00:42:45;15.00;99.90
23149;DHT22;11743;51.228;22.498;2023-07-20T00:43:08;15.00;99.90
23149;DHT22;11743;51.228;22.498;2023-07-20T00:43:30;15.00;99.90
23149;DHT22;11743;51.228;22.498;2023-07-20T00:43:52;15.00;99.90
23149;DHT22;11743;51.228;22.498;2023-07-20T00:44:14;15.00;99.90
23149;DHT22;11743;51.228;22.498;2023-07-20T00:44:35;15.00;99.90
23149;DHT22;11743;51.228;22.498;2023-07-20T00:44:57;15.00;99.90
23149;DHT22;11743;51.228;22.498;2023-07-20T00:45:19;15.00;99.90
23149;DHT22;11743;51.228;22.498;2023-07-20T00:45:41;15.00;99.90
23149;DHT22;11743;51.228;22.498;2023-07-20T00:46:03;15.00;99.90
23149;DHT22;11743;51.228;22.498;2023-07-20T00:46:27;15.00;99.90
23149;DHT22;11743;51.228;22.498;2023-07-20T00:46:49;15.00;99.90
23149;DHT22;11743;51.228;22.498;2023-07-20T00:47:11;15.00;99.90
23149;DHT22;11743;51.228;22.498;2023-07-20T00:47:33;15.00;99.90
23149;DHT22;11743;51.228;22.498;2023-07-20T00:47:55;15.00;99.90
23149;DHT22;11743;51.228;22.498;2023-07-20T00:48:17;15.00;99.90
23149;DHT22;11743;51.228;22.498;2023-07-20T00:48:41;15.00;99.90
23149;DHT22;11743;51.228;22.498;2023-07-20T00:49:04;15.00;99.90
23149;DHT22;11743;51.228;22.498;2023-07-20T00:49:26;15.00;99.90
23149;DHT22;11743;51.228;22.498;2023-07-20T00:49:48;15.00;99.90
23149;DHT22;11743;51.228;22.498;2023-07-20T00:50:10;15.00;99.90
23149;DHT22;11743;51.228;22.498;2023-07-20T00:50:32;15.00;99.90
23149;DHT22;11743;51.228;22.498;2023-07-20T00:50:55;15.00;99.90
23149;DHT22;11743;51.228;22.498;2023-07-20T00:51:18;15.00;99.90
23149;DHT22;11743;51.228;22.498;2023-07-20T00:51:41;15.00;99.90
23149;DHT22;11743;51.228;22.498;2023-07-20T00:52:03;15.00;99.90
23149;DHT22;11743;51.228;22.498;2023-07-20T00:52:28;15.00;99.90
23149;DHT22;11743;51.228;22.498;2023-07-20T00:52:50;15.00;99.90
23149;DHT22;11743;51.228;22.498;2023-07-20T00:53:12;15.00;99.90
23149;DHT22;11743;51.228;22.498;2023-07-20T00:53:34;14.90;99.90
23149;DHT22;11743;51.228;22.498;2023-07-20T00:53:56;14.90;99.90
23149;DHT22;11743;51.228;22.498;2023-07-20T00:54:18;14.90;99.90
23149;DHT22;11743;51.228;22.498;2023-07-20T00:54:41;14.90;99.90
23149;DHT22;11743;51.228;22.498;2023-07-20T00:55:02;14.90;99.90
23149;DHT22;11743;51.228;22.498;2023-07-20T00:55:25;14.90;99.90
23149;DHT22;11743;51.228;22.498;2023-07-20T00:55:48;14.90;99.90
23149;DHT22;11743;51.228;22.498;2023-07-20T00:56:10;14.90;99.90
23149;DHT22;11743;51.228;22.498;2023-07-20T00:56:33;14.90;99.90
23149;DHT22;11743;51.228;22.498;2023-07-20T00:56:55;14.90;99.90
23149;DHT22;11743;51.228;22.498;2023-07-20T00:57:17;14.90;99.90
23149;DHT22;11743;51.228;22.498;2023-07-20T00:57:40;14.90;99.90
23149;DHT22;11743;51.228;22.498;2023-07-20T00:58:03;14.90;99.90
23149;DHT22;11743;51.228;22.498;2023-07-20T00:58:27;14.90;99.90
23149;DHT22;11743;51.228;22.498;2023-07-20T00:58:49;14.90;99.90
23149;DHT22;11743;51.228;22.498;2023-07-20T00:59:11;14.90;99.90
23149;DHT22;11743;51.228;22.498;2023-07-20T00:59:34;14.90;99.90
23149;DHT22;11743;51.228;22.498;2023-07-20T00:59:57;14.80;99.90
23149;DHT22;11743;51.228;22.498;2023-07-20T01:00:19;14.80;99.90
23149;DHT22;11743;51.228;22.498;2023-07-20T01:00:41;14.80;99.90
23149;DHT22;11743;51.228;22.498;2023-07-20T01:01:03;14.80;99.90
23149;DHT22;11743;51.228;22.498;2023-07-20T01:01:26;14.70;99.90
23149;DHT22;11743;51.228;22.498;2023-07-20T01:01:48;14.80;99.90
23149;DHT22;11743;51.228;22.498;2023-07-20T01:02:10;14.80;99.90
23149;DHT22;11743;51.228;22.498;2023-07-20T01:02:32;14.70;99.90
23149;DHT22;11743;51.228;22.498;2023-07-20T01:02:54;14.70;99.90
23149;DHT22;11743;51.228;22.498;2023-07-20T01:03:16;14.70;99.90
23149;DHT22;11743;51.228;22.498;2023-07-20T01:03:38;14.70;99.90
23149;DHT22;11743;51.228;22.498;2023-07-20T01:04:00;14.70;99.90
23149;DHT22;11743;51.228;22.498;2023-07-20T01:04:22;14.70;99.90
23149;DHT22;11743;51.228;22.498;2023-07-20T01:04:44;14.60;99.90
23149;DHT22;11743;51.228;22.498;2023-07-20T01:05:06;14.70;99.90
23149;DHT22;11743;51.228;22.498;2023-07-20T01:06:45;14.60;99.90
23149;DHT22;11743;51.228;22.498;2023-07-20T01:07:57;14.70;99.90
23149;DHT22;11743;51.228;22.498;2023-07-20T01:08:33;14.70;99.90
23149;DHT22;11743;51.228;22.498;2023-07-20T01:09:48;14.70;99.90
23149;DHT22;11743;51.228;22.498;2023-07-20T01:10:25;14.70;99.90
23149;DHT22;11743;51.228;22.498;2023-07-20T01:10:55;14.70;99.90
23149;DHT22;11743;51.228;22.498;2023-07-20T01:11:28;14.70;99.90
23149;DHT22;11743;51.228;22.498;2023-07-20T01:12:06;14.70;99.90
23149;DHT22;11743;51.228;22.498;2023-07-20T01:13:23;14.80;99.90
23149;DHT22;11743;51.228;22.498;2023-07-20T01:13:45;14.80;99.90
23149;DHT22;11743;51.228;22.498;2023-07-20T01:14:07;14.80;99.90
23149;DHT22;11743;51.228;22.498;2023-07-20T01:14:31;14.80;99.90
23149;DHT22;11743;51.228;22.498;2023-07-20T01:14:54;14.80;99.90
23149;DHT22;11743;51.228;22.498;2023-07-20T01:15:16;14.80;99.90
23149;DHT22;11743;51.228;22.498;2023-07-20T01:15:38;14.90;99.90
23149;DHT22;11743;51.228;22.498;2023-07-20T01:16:01;14.80;99.90
23149;DHT22;11743;51.228;22.498;2023-07-20T01:16:23;14.90;99.90
23149;DHT22;11743;51.228;22.498;2023-07-20T01:16:46;14.90;99.90
23149;DHT22;11743;51.228;22.498;2023-07-20T01:17:09;14.80;99.90
23149;DHT22;11743;51.228;22.498;2023-07-20T01:17:31;14.90;99.90
23149;DHT22;11743;51.228;22.498;2023-07-20T01:17:52;14.90;99.90
23149;DHT22;11743;51.228;22.498;2023-07-20T01:18:14;14.90;99.90
23149;DHT22;11743;51.228;22.498;2023-07-20T01:18:37;14.90;99.90
23149;DHT22;11743;51.228;22.498;2023-07-20T01:18:59;14.90;99.90
23149;DHT22;11743;51.228;22.498;2023-07-20T01:19:21;14.90;99.90
23149;DHT22;11743;51.228;22.498;2023-07-20T01:19:42;14.80;99.90
23149;DHT22;11743;51.228;22.498;2023-07-20T01:20:08;14.90;99.90
23149;DHT22;11743;51.228;22.498;2023-07-20T01:20:33;14.90;99.90
23149;DHT22;11743;51.228;22.498;2023-07-20T01:21:00;14.90;99.90
23149;DHT22;11743;51.228;22.498;2023-07-20T01:21:34;14.90;99.90
23149;DHT22;11743;51.228;22.498;2023-07-20T01:22:09;14.90;99.90
23149;DHT22;11743;51.228;22.498;2023-07-20T01:22:39;14.90;99.90
23149;DHT22;11743;51.228;22.498;2023-07-20T01:25:26;14.90;99.90
23149;DHT22;11743;51.228;22.498;2023-07-20T01:30:02;14.90;99.90
23149;DHT22;11743;51.228;22.498;2023-07-20T01:30:59;14.80;99.90
23149;DHT22;11743;51.228;22.498;2023-07-20T01:31:25;14.80;99.90
23149;DHT22;11743;51.228;22.498;2023-07-20T01:31:50;14.80;99.90
23149;DHT22;11743;51.228;22.498;2023-07-20T01:32:14;14.80;99.90
23149;DHT22;11743;51.228;22.498;2023-07-20T01:32:40;14.80;99.90
23149;DHT22;11743;51.228;22.498;2023-07-20T01:33:03;14.80;99.90
23149;DHT22;11743;51.228;22.498;2023-07-20T01:33:27;14.80;99.90
23149;DHT22;11743;51.228;22.498;2023-07-20T01:33:54;14.80;99.90
23149;DHT22;11743;51.228;22.498;2023-07-20T01:34:17;14.80;99.90
23149;DHT22;11743;51.228;22.498;2023-07-20T01:34:41;14.80;99.90
23149;DHT22;11743;51.228;22.498;2023-07-20T01:35:05;14.80;99.90
23149;DHT22;11743;51.228;22.498;2023-07-20T01:35:29;14.80;99.90
23149;DHT22;11743;51.228;22.498;2023-07-20T01:35:58;14.80;99.90
23149;DHT22;11743;51.228;22.498;2023-07-20T01:36:23;14.80;99.90
23149;DHT22;11743;51.228;22.498;2023-07-20T01:36:46;14.80;99.90
23149;DHT22;11743;51.228;22.498;2023-07-20T01:37:10;14.80;99.90
23149;DHT22;11743;51.228;22.498;2023-07-20T01:37:34;14.80;99.90
23149;DHT22;11743;51.228;22.498;2023-07-20T01:37:56;14.80;99.90
23149;DHT22;11743;51.228;22.498;2023-07-20T01:38:20;14.80;99.90
23149;DHT22;11743;51.228;22.498;2023-07-20T01:38:43;14.80;99.90
23149;DHT22;11743;51.228;22.498;2023-07-20T01:39:06;14.80;99.90
23149;DHT22;11743;51.228;22.498;2023-07-20T01:39:30;14.80;99.90
23149;DHT22;11743;51.228;22.498;2023-07-20T01:39:53;14.80;99.90
23149;DHT22;11743;51.228;22.498;2023-07-20T01:40:18;14.80;99.90
23149;DHT22;11743;51.228;22.498;2023-07-20T01:40:40;14.80;99.90
23149;DHT22;11743;51.228;22.498;2023-07-20T01:41:03;14.80;99.90
23149;DHT22;11743;51.228;22.498;2023-07-20T01:41:25;14.80;99.90
23149;DHT22;11743;51.228;22.498;2023-07-20T01:41:47;14.80;99.90
23149;DHT22;11743;51.228;22.498;2023-07-20T01:42:09;14.80;99.90
23149;DHT22;11743;51.228;22.498;2023-07-20T01:42:31;14.70;99.90
23149;DHT22;11743;51.228;22.498;2023-07-20T01:42:53;14.80;99.90
23149;DHT22;11743;51.228;22.498;2023-07-20T01:43:16;14.80;99.90
23149;DHT22;11743;51.228;22.498;2023-07-20T01:43:38;14.70;99.90
23149;DHT22;11743;51.228;22.498;2023-07-20T01:43:59;14.70;99.90
23149;DHT22;11743;51.228;22.498;2023-07-20T01:44:21;14.80;99.90
23149;DHT22;11743;51.228;22.498;2023-07-20T01:44:43;14.70;99.90
23149;DHT22;11743;51.228;22.498;2023-07-20T01:45:05;14.70;99.90
23149;DHT22;11743;51.228;22.498;2023-07-20T01:45:27;14.80;99.90
23149;DHT22;11743;51.228;22.498;2023-07-20T01:45:49;14.70;99.90
23149;DHT22;11743;51.228;22.498;2023-07-20T01:46:11;14.70;99.90
23149;DHT22;11743;51.228;22.498;2023-07-20T01:46:33;14.70;99.90
23149;DHT22;11743;51.228;22.498;2023-07-20T01:46:55;14.70;99.90
23149;DHT22;11743;51.228;22.498;2023-07-20T01:47:17;14.70;99.90
23149;DHT22;11743;51.228;22.498;2023-07-20T01:47:38;14.70;99.90
23149;DHT22;11743;51.228;22.498;2023-07-20T01:48:00;14.70;99.90
23149;DHT22;11743;51.228;22.498;2023-07-20T01:48:22;14.70;99.90
23149;DHT22;11743;51.228;22.498;2023-07-20T01:48:44;14.70;99.90
23149;DHT22;11743;51.228;22.498;2023-07-20T01:49:06;14.70;99.90
23149;DHT22;11743;51.228;22.498;2023-07-20T01:49:28;14.70;99.90
23149;DHT22;11743;51.228;22.498;2023-07-20T01:49:50;14.70;99.90
23149;DHT22;11743;51.228;22.498;2023-07-20T01:50:12;14.70;99.90
23149;DHT22;11743;51.228;22.498;2023-07-20T01:50:33;14.60;99.90
23149;DHT22;11743;51.228;22.498;2023-07-20T01:50:56;14.70;99.90
23149;DHT22;11743;51.228;22.498;2023-07-20T01:51:18;14.70;99.90
23149;DHT22;11743;51.228;22.498;2023-07-20T01:51:40;14.70;99.90
23149;DHT22;11743;51.228;22.498;2023-07-20T01:52:04;14.70;99.90
23149;DHT22;11743;51.228;22.498;2023-07-20T01:52:26;14.70;99.90
23149;DHT22;11743;51.228;22.498;2023-07-20T01:52:48;14.60;99.90
23149;DHT22;11743;51.228;22.498;2023-07-20T01:53:10;14.70;99.90
23149;DHT22;11743;51.228;22.498;2023-07-20T01:53:32;14.60;99.90
23149;DHT22;11743;51.228;22.498;2023-07-20T01:53:53;14.60;99.90
23149;DHT22;11743;51.228;22.498;2023-07-20T01:54:16;14.70;99.90
23149;DHT22;11743;51.228;22.498;2023-07-20T01:54:38;14.60;99.90
23149;DHT22;11743;51.228;22.498;2023-07-20T01:55:00;14.60;99.90
23149;DHT22;11743;51.228;22.498;2023-07-20T01:55:21;14.60;99.90
23149;DHT22;11743;51.228;22.498;2023-07-20T01:55:43;14.60;99.90
23149;DHT22;11743;51.228;22.498;2023-07-20T01:56:05;14.60;99.90
23149;DHT22;11743;51.228;22.498;2023-07-20T01:56:27;14.70;99.90
23149;DHT22;11743;51.228;22.498;2023-07-20T01:56:49;14.60;99.90
23149;DHT22;11743;51.228;22.498;2023-07-20T01:57:11;14.60;99.90
23149;DHT22;11743;51.228;22.498;2023-07-20T01:57:32;14.60;99.90
23149;DHT22;11743;51.228;22.498;2023-07-20T01:57:55;14.60;99.90
23149;DHT22;11743;51.228;22.498;2023-07-20T01:58:17;14.60;99.90
23149;DHT22;11743;51.228;22.498;2023-07-20T01:58:39;14.60;99.90
23149;DHT22;11743;51.228;22.498;2023-07-20T01:59:01;14.60;99.90
23149;DHT22;11743;51.228;22.498;2023-07-20T01:59:23;14.60;99.90
23149;DHT22;11743;51.228;22.498;2023-07-20T01:59:47;14.60;99.90
23149;DHT22;11743;51.228;22.498;2023-07-20T02:00:09;14.60;99.90
23149;DHT22;11743;51.228;22.498;2023-07-20T02:00:31;14.60;99.90
23149;DHT22;11743;51.228;22.498;2023-07-20T02:00:53;14.60;99.90
23149;DHT22;11743;51.228;22.498;2023-07-20T02:01:15;14.60;99.90
23149;DHT22;11743;51.228;22.498;2023-07-20T02:01:37;14.60;99.90
23149;DHT22;11743;51.228;22.498;2023-07-20T02:01:58;14.60;99.90
23149;DHT22;11743;51.228;22.498;2023-07-20T02:02:20;14.60;99.90
23149;DHT22;11743;51.228;22.498;2023-07-20T02:02:42;14.60;99.90
23149;DHT22;11743;51.228;22.498;2023-07-20T02:03:05;14.60;99.90
23149;DHT22;11743;51.228;22.498;2023-07-20T02:03:27;14.60;99.90
23149;DHT22;11743;51.228;22.498;2023-07-20T02:03:48;14.60;99.90
23149;DHT22;11743;51.228;22.498;2023-07-20T02:04:10;14.60;99.90
23149;DHT22;11743;51.228;22.498;2023-07-20T02:04:32;14.60;99.90
23149;DHT22;11743;51.228;22.498;2023-07-20T02:04:54;14.60;99.90
23149;DHT22;11743;51.228;22.498;2023-07-20T02:05:16;14.60;99.90
23149;DHT22;11743;51.228;22.498;2023-07-20T02:05:38;14.60;99.90
23149;DHT22;11743;51.228;22.498;2023-07-20T02:06:00;14.60;99.90
23149;DHT22;11743;51.228;22.498;2023-07-20T02:06:22;14.60;99.90
23149;DHT22;11743;51.228;22.498;2023-07-20T02:06:44;14.60;99.90
23149;DHT22;11743;51.228;22.498;2023-07-20T02:07:06;14.60;99.90
23149;DHT22;11743;51.228;22.498;2023-07-20T02:07:28;14.60;99.90
23149;DHT22;11743;51.228;22.498;2023-07-20T02:07:49;14.60;99.90
23149;DHT22;11743;51.228;22.498;2023-07-20T02:08:11;14.60;99.90
23149;DHT22;11743;51.228;22.498;2023-07-20T02:08:33;14.60;99.90
23149;DHT22;11743;51.228;22.498;2023-07-20T02:08:55;14.60;99.90
23149;DHT22;11743;51.228;22.498;2023-07-20T02:09:17;14.60;99.90
23149;DHT22;11743;51.228;22.498;2023-07-20T02:09:38;14.60;99.90
23149;DHT22;11743;51.228;22.498;2023-07-20T02:10:00;14.60;99.90
23149;DHT22;11743;51.228;22.498;2023-07-20T02:10:22;14.60;99.90
23149;DHT22;11743;51.228;22.498;2023-07-20T02:10:48;14.60;99.90
23149;DHT22;11743;51.228;22.498;2023-07-20T02:11:10;14.60;99.90
23149;DHT22;11743;51.228;22.498;2023-07-20T02:11:32;14.50;99.90
23149;DHT22;11743;51.228;22.498;2023-07-20T02:11:53;14.60;99.90
23149;DHT22;11743;51.228;22.498;2023-07-20T02:12:15;14.50;99.90
23149;DHT22;11743;51.228;22.498;2023-07-20T02:12:37;14.50;99.90
23149;DHT22;11743;51.228;22.498;2023-07-20T02:12:59;14.60;99.90
23149;DHT22;11743;51.228;22.498;2023-07-20T02:13:21;14.50;99.90
23149;DHT22;11743;51.228;22.498;2023-07-20T02:13:43;14.50;99.90
23149;DHT22;11743;51.228;22.498;2023-07-20T02:14:04;14.50;99.90
23149;DHT22;11743;51.228;22.498;2023-07-20T02:14:26;14.50;99.90
23149;DHT22;11743;51.228;22.498;2023-07-20T02:14:48;14.50;99.90
23149;DHT22;11743;51.228;22.498;2023-07-20T02:15:11;14.50;99.90
23149;DHT22;11743;51.228;22.498;2023-07-20T02:15:34;14.50;99.90
23149;DHT22;11743;51.228;22.498;2023-07-20T02:15:56;14.50;99.90
23149;DHT22;11743;51.228;22.498;2023-07-20T02:16:18;14.50;99.90
23149;DHT22;11743;51.228;22.498;2023-07-20T02:16:40;14.50;99.90
23149;DHT22;11743;51.228;22.498;2023-07-20T02:17:02;14.50;99.90
23149;DHT22;11743;51.228;22.498;2023-07-20T02:17:24;14.50;99.90
23149;DHT22;11743;51.228;22.498;2023-07-20T02:17:46;14.50;99.90
23149;DHT22;11743;51.228;22.498;2023-07-20T02:18:08;14.50;99.90
23149;DHT22;11743;51.228;22.498;2023-07-20T02:18:29;14.50;99.90
23149;DHT22;11743;51.228;22.498;2023-07-20T02:18:52;14.50;99.90
23149;DHT22;11743;51.228;22.498;2023-07-20T02:19:14;14.50;99.90
23149;DHT22;11743;51.228;22.498;2023-07-20T02:19:37;14.50;99.90
23149;DHT22;11743;51.228;22.498;2023-07-20T02:19:59;14.50;99.90
23149;DHT22;11743;51.228;22.498;2023-07-20T02:20:21;14.50;99.90
23149;DHT22;11743;51.228;22.498;2023-07-20T02:20:42;14.40;99.90
23149;DHT22;11743;51.228;22.498;2023-07-20T02:21:04;14.50;99.90
23149;DHT22;11743;51.228;22.498;2023-07-20T02:21:26;14.40;99.90
23149;DHT22;11743;51.228;22.498;2023-07-20T02:21:48;14.40;99.90
23149;DHT22;11743;51.228;22.498;2023-07-20T02:22:10;14.50;99.90
23149;DHT22;11743;51.228;22.498;2023-07-20T02:22:31;14.50;99.90
23149;DHT22;11743;51.228;22.498;2023-07-20T02:22:53;14.50;99.90
23149;DHT22;11743;51.228;22.498;2023-07-20T02:23:15;14.50;99.90
23149;DHT22;11743;51.228;22.498;2023-07-20T02:23:37;14.50;99.90
23149;DHT22;11743;51.228;22.498;2023-07-20T02:23:59;14.50;99.90
23149;DHT22;11743;51.228;22.498;2023-07-20T02:24:21;14.50;99.90
23149;DHT22;11743;51.228;22.498;2023-07-20T02:24:43;14.50;99.90
23149;DHT22;11743;51.228;22.498;2023-07-20T02:25:06;14.50;99.90
23149;DHT22;11743;51.228;22.498;2023-07-20T02:25:28;14.50;99.90
23149;DHT22;11743;51.228;22.498;2023-07-20T02:25:50;14.50;99.90
23149;DHT22;11743;51.228;22.498;2023-07-20T02:26:12;14.50;99.90
23149;DHT22;11743;51.228;22.498;2023-07-20T02:26:34;14.50;99.90
23149;DHT22;11743;51.228;22.498;2023-07-20T02:26:55;14.50;99.90
23149;DHT22;11743;51.228;22.498;2023-07-20T02:27:17;14.50;99.90
23149;DHT22;11743;51.228;22.498;2023-07-20T02:27:39;14.50;99.90
23149;DHT22;11743;51.228;22.498;2023-07-20T02:28:01;14.50;99.90
23149;DHT22;11743;51.228;22.498;2023-07-20T02:28:23;14.50;99.90
23149;DHT22;11743;51.228;22.498;2023-07-20T02:28:45;14.50;99.90
23149;DHT22;11743;51.228;22.498;2023-07-20T02:29:07;14.60;99.90
23149;DHT22;11743;51.228;22.498;2023-07-20T02:29:29;14.60;99.90
23149;DHT22;11743;51.228;22.498;2023-07-20T02:29:51;14.60;99.90
23149;DHT22;11743;51.228;22.498;2023-07-20T02:30:13;14.60;99.90
23149;DHT22;11743;51.228;22.498;2023-07-20T02:30:37;14.60;99.90
23149;DHT22;11743;51.228;22.498;2023-07-20T02:31:00;14.60;99.90
23149;DHT22;11743;51.228;22.498;2023-07-20T02:31:22;14.60;99.90